Time;durP1;ratioP1;P1;durP2;ratioP2;P2;SDS_P1;SDS_P2;PMS_P1;PMS_P2;Temp;Humidity;BMP_temperature;BMP_pressure;BME280_temperature;BME280_humidity;BME280_pressure;Samples;Min_cycle;Max_cycle;Signal;HPM_P1;HPM_P2
2023/08/09 00:00:39;;;;;;;0.60;0.40;;;;;;;20.18;58.05;95440.53;5113920;28;20471;-65
2023/08/09 00:03:07;;;;;;;0.57;0.40;;;;;;;19.86;58.46;95449.25;5112497;28;20436;-65
2023/08/09 00:05:36;;;;;;;0.50;0.40;;;;;;;19.61;61.05;95442.88;5113618;28;20436;-65
2023/08/09 00:08:04;;;;;;;0.70;0.70;;;;;;;19.28;59.92;95441.06;5113603;28;20468;-65
2023/08/09 00:10:34;;;;;;;0.50;0.40;;;;;;;19.35;59.83;95439.47;5113494;28;20440;-62
2023/08/09 00:13:03;;;;;;;0.40;0.30;;;;;;;19.16;60.93;95433.66;5113556;28;20440;-65
2023/08/09 00:15:33;;;;;;;0.57;0.30;;;;;;;19.07;61.59;95438.28;5113391;28;20810;-65
2023/08/09 00:18:01;;;;;;;0.50;0.30;;;;;;;19.45;60.56;95435.69;5113565;28;20441;-65
2023/08/09 00:20:30;;;;;;;0.63;0.63;;;;;;;19.39;60.06;95426.19;5113086;28;20463;-65
2023/08/09 00:22:59;;;;;;;0.40;0.20;;;;;;;19.83;61.80;95435.66;5113386;28;21003;-65
2023/08/09 00:25:27;;;;;;;0.60;0.30;;;;;;;19.82;61.30;95429.50;5112865;28;20576;-65
2023/08/09 00:27:55;;;;;;;0.40;0.40;;;;;;;19.80;61.19;95434.41;5113508;28;20534;-66
2023/08/09 00:30:24;;;;;;;0.40;0.20;;;;;;;20.23;61.50;95424.22;5112863;28;20428;-65
2023/08/09 00:32:54;;;;;;;0.40;0.20;;;;;;;20.03;59.86;95434.91;5113169;28;20444;-65
2023/08/09 00:35:22;;;;;;;0.50;0.40;;;;;;;19.73;60.57;95434.13;5112981;28;20925;-66
2023/08/09 00:37:50;;;;;;;0.70;0.57;;;;;;;19.50;61.23;95427.44;5112822;28;20517;-65
2023/08/09 00:40:19;;;;;;;0.40;0.20;;;;;;;19.88;61.43;95430.91;5112606;28;20472;-65
2023/08/09 00:42:47;;;;;;;0.40;0.30;;;;;;;19.68;60.77;95423.56;5113286;28;20459;-65
2023/08/09 00:45:16;;;;;;;0.40;0.30;;;;;;;19.56;61.63;95434.19;5112531;28;20438;-65
2023/08/09 00:47:44;;;;;;;0.50;0.30;;;;;;;19.59;61.21;95438.94;5113052;28;20789;-66
2023/08/09 00:50:14;;;;;;;0.60;0.50;;;;;;;19.92;62.69;95431.81;5112791;28;20508;-65
2023/08/09 00:52:46;;;;;;;0.40;0.20;;;;;;;20.46;62.33;95434.66;5112421;28;20436;-60
2023/08/09 00:55:13;;;;;;;0.60;0.60;;;;;;;20.17;59.69;95428.19;5113920;28;20727;-65
2023/08/09 00:57:42;;;;;;;0.40;0.20;;;;;;;19.94;61.05;95431.47;5130377;28;20488;-65
2023/08/09 01:00:11;;;;;;;0.40;0.30;;;;;;;19.56;61.72;95431.50;5112571;28;20990;-65
2023/08/09 01:02:39;;;;;;;6.00;0.40;;;;;;;19.60;60.97;95429.75;5112492;28;20432;-65
2023/08/09 01:05:09;;;;;;;0.50;0.30;;;;;;;19.30;61.71;95418.13;5112748;28;20464;-65
2023/08/09 01:07:45;;;;;;;0.50;0.40;;;;;;;19.11;62.83;95431.16;5112522;28;20885;-65
2023/08/09 01:10:17;;;;;;;0.70;0.40;;;;;;;19.36;62.34;95438.34;5112658;28;20444;-65
2023/08/09 01:12:51;;;;;;;0.60;0.30;;;;;;;19.34;61.87;95440.56;5112398;28;20897;-65
2023/08/09 01:15:21;;;;;;;0.53;0.37;;;;;;;19.48;63.46;95440.41;5112456;28;20853;-65
2023/08/09 01:17:51;;;;;;;0.50;0.40;;;;;;;19.60;63.30;95438.63;5112121;28;20475;-65
2023/08/09 01:20:22;;;;;;;0.50;0.30;;;;;;;19.60;62.62;95437.81;5112044;28;20476;-65
2023/08/09 01:22:58;;;;;;;0.67;0.67;;;;;;;19.49;64.45;95444.66;5112166;28;20446;-65
2023/08/09 01:25:28;;;;;;;0.80;0.47;;;;;;;19.49;61.17;95425.84;5112143;28;20443;-65
2023/08/09 01:27:58;;;;;;;0.60;0.40;;;;;;;19.59;62.54;95445.09;5111895;28;20432;-65
2023/08/09 01:30:26;;;;;;;0.50;0.50;;;;;;;20.20;63.26;95446.38;5112151;28;20444;-65
2023/08/09 01:32:55;;;;;;;0.50;0.30;;;;;;;20.00;60.14;95444.44;5112251;28;20496;-65
2023/08/09 01:35:26;;;;;;;0.40;0.30;;;;;;;19.59;61.43;95431.66;5111604;28;20440;-65
2023/08/09 01:38:03;;;;;;;0.50;0.40;;;;;;;19.55;63.35;95438.81;5112477;28;20451;-65
2023/08/09 01:40:34;;;;;;;0.40;0.30;;;;;;;19.75;64.44;95445.34;5111865;28;20485;-65
2023/08/09 01:43:02;;;;;;;0.40;0.20;;;;;;;20.07;61.07;95433.94;5112089;28;20953;-65
2023/08/09 01:45:32;;;;;;;0.40;0.20;;;;;;;20.09;62.39;95444.38;5112063;28;20436;-64
2023/08/09 01:48:00;;;;;;;0.50;0.30;;;;;;;19.35;61.18;95446.75;5111633;28;20506;-64
2023/08/09 01:50:29;;;;;;;0.40;0.30;;;;;;;19.11;62.19;95446.47;5111922;28;20475;-64
2023/08/09 01:52:58;;;;;;;2.00;0.50;;;;;;;19.06;63.36;95449.34;5111725;28;20497;-63
2023/08/09 01:55:28;;;;;;;0.80;0.50;;;;;;;19.30;64.38;95447.69;5111815;28;20431;-63
2023/08/09 01:57:57;;;;;;;0.60;0.60;;;;;;;19.16;63.07;95449.78;5112058;28;20432;-63
2023/08/09 02:00:26;;;;;;;0.40;0.23;;;;;;;19.60;65.17;95456.66;5111832;28;20823;-64
2023/08/09 02:02:56;;;;;;;0.50;0.43;;;;;;;19.66;63.05;95451.88;5111614;28;20466;-63
2023/08/09 02:05:25;;;;;;;0.40;0.20;;;;;;;20.01;63.66;95448.69;5111788;28;20436;-64
2023/08/09 02:07:53;;;;;;;0.40;0.30;;;;;;;19.94;62.07;95448.41;5111195;28;21054;-63
2023/08/09 02:10:21;;;;;;;0.70;0.40;;;;;;;19.69;62.93;95457.41;5111571;28;20467;-64
2023/08/09 02:12:50;;;;;;;0.47;0.30;;;;;;;19.88;64.25;95451.63;5111040;28;20436;-63
2023/08/09 02:15:21;;;;;;;0.40;0.20;;;;;;;20.08;64.68;95457.06;5111686;28;20436;-63
2023/08/09 02:17:50;;;;;;;0.40;0.30;;;;;;;20.22;60.81;95454.09;5111632;28;20442;-63
2023/08/09 02:20:19;;;;;;;0.40;0.30;;;;;;;19.45;62.51;95466.03;5111342;28;20443;-63
2023/08/09 02:22:48;;;;;;;0.40;0.20;;;;;;;19.35;64.86;95462.88;5111710;28;20440;-64
2023/08/09 02:25:17;;;;;;;0.60;0.30;;;;;;;19.35;62.36;95469.03;5111589;28;20431;-63
2023/08/09 02:27:46;;;;;;;0.50;0.33;;;;;;;19.73;64.56;95463.72;5111061;28;20436;-63
2023/08/09 02:30:15;;;;;;;0.40;0.30;;;;;;;19.71;64.52;95474.00;5110778;28;20432;-63
2023/08/09 02:32:45;;;;;;;0.60;0.30;;;;;;;19.83;62.81;95468.75;5111056;28;20478;-63
2023/08/09 02:35:15;;;;;;;0.50;0.30;;;;;;;19.34;63.96;95478.22;5111612;28;20450;-63
2023/08/09 02:37:43;;;;;;;0.40;0.20;;;;;;;19.33;65.30;95481.19;5111306;28;20444;-63
2023/08/09 02:40:12;;;;;;;0.80;0.80;;;;;;;19.22;64.45;95483.47;5112401;28;20451;-63
2023/08/09 02:42:41;;;;;;;0.40;0.30;;;;;;;18.54;65.13;95486.97;5115315;28;20984;-63
2023/08/09 02:45:09;;;;;;;0.47;0.30;;;;;;;18.72;67.78;95483.16;5115008;28;20427;-62
2023/08/09 02:47:39;;;;;;;0.40;0.30;;;;;;;18.91;66.04;95488.22;5115159;28;20530;-62
2023/08/09 02:50:09;;;;;;;0.60;0.33;;;;;;;18.77;66.64;95485.69;5115252;28;20535;-63
2023/08/09 02:52:38;;;;;;;0.50;0.40;;;;;;;19.13;68.22;95496.09;5114683;28;20450;-63
2023/08/09 02:55:09;;;;;;;0.50;0.30;;;;;;;19.56;66.86;95501.41;5115149;28;21020;-63
2023/08/09 02:57:38;;;;;;;0.40;0.30;;;;;;;19.57;65.91;95497.63;5114845;28;20450;-62
2023/08/09 03:00:08;;;;;;;0.40;0.30;;;;;;;19.86;66.61;95499.59;5115016;28;20436;-63
2023/08/09 03:02:36;;;;;;;0.40;0.30;;;;;;;19.80;64.79;95498.97;5114293;28;20479;-63
2023/08/09 03:05:06;;;;;;;0.50;0.33;;;;;;;18.97;64.19;95503.84;5114747;28;20464;-63
2023/08/09 03:07:38;;;;;;;0.60;0.40;;;;;;;18.45;67.77;95494.19;5114503;28;20439;-62
2023/08/09 03:10:07;;;;;;;0.60;0.30;;;;;;;18.43;65.88;95501.75;5114510;28;20462;-62
2023/08/09 03:12:35;;;;;;;0.50;0.30;;;;;;;18.19;66.25;95504.88;5114186;28;20440;-62
2023/08/09 03:15:05;;;;;;;0.50;0.30;;;;;;;17.75;68.79;95510.41;5114886;28;20444;-62
2023/08/09 03:17:33;;;;;;;3.47;1.60;;;;;;;17.75;68.94;95515.78;5114100;28;20465;-62
2023/08/09 03:20:08;;;;;;;0.80;0.40;;;;;;;17.88;69.03;95514.09;5113842;28;20444;-62
2023/08/09 03:22:38;;;;;;;0.40;0.30;;;;;;;18.16;67.86;95497.47;5114501;28;20471;-62
2023/08/09 03:25:07;;;;;;;0.60;0.47;;;;;;;18.70;67.43;95517.59;5114774;28;20461;-62
2023/08/09 03:27:35;;;;;;;0.60;0.40;;;;;;;18.33;69.04;95524.31;5114303;28;20472;-62
2023/08/09 03:30:05;;;;;;;0.60;0.30;;;;;;;19.17;68.95;95520.44;5114310;28;20440;-61
2023/08/09 03:32:33;;;;;;;0.40;0.30;;;;;;;19.37;68.78;95530.56;5113878;28;20477;-62
2023/08/09 03:35:02;;;;;;;0.40;0.20;;;;;;;19.45;67.79;95532.44;5114186;28;20953;-62
2023/08/09 03:37:31;;;;;;;0.40;0.20;;;;;;;19.91;67.96;95537.06;5114339;28;20544;-63
2023/08/09 03:40:00;;;;;;;0.40;0.30;;;;;;;20.01;64.67;95532.09;5114021;28;20483;-62
2023/08/09 03:42:29;;;;;;;0.40;0.30;;;;;;;20.11;65.10;95529.03;5114554;28;20472;-63
2023/08/09 03:44:57;;;;;;;0.50;0.30;;;;;;;19.89;66.28;95537.38;5113692;28;20531;-63
2023/08/09 03:47:25;;;;;;;0.40;0.30;;;;;;;19.70;66.02;95539.66;5113843;28;20504;-63
2023/08/09 03:49:54;;;;;;;0.50;0.30;;;;;;;19.68;66.45;95544.56;5114258;28;20952;-63
2023/08/09 03:52:23;;;;;;;1.07;0.70;;;;;;;19.82;64.32;95552.44;5113350;28;20542;-63
2023/08/09 03:54:52;;;;;;;0.40;0.30;;;;;;;19.55;65.17;95540.97;5113907;28;20439;-64
2023/08/09 03:57:22;;;;;;;0.40;0.30;;;;;;;19.89;66.57;95547.34;5113954;28;20926;-64
2023/08/09 03:59:50;;;;;;;0.47;0.30;;;;;;;19.89;65.43;95548.13;5113679;28;20459;-63
2023/08/09 04:02:19;;;;;;;0.50;0.30;;;;;;;20.20;64.14;95548.66;5113773;28;20516;-64
2023/08/09 04:04:47;;;;;;;0.50;0.30;;;;;;;20.41;64.32;95542.56;5113934;28;20438;-64
2023/08/09 04:07:16;;;;;;;0.40;0.27;;;;;;;20.37;63.81;95536.22;5113623;28;20874;-63
2023/08/09 04:09:44;;;;;;;0.50;0.40;;;;;;;20.41;64.39;95548.72;5113732;28;20916;-64
2023/08/09 04:12:12;;;;;;;0.40;0.30;;;;;;;20.55;63.45;95553.84;5113303;28;20468;-65
2023/08/09 04:14:43;;;;;;;0.50;0.30;;;;;;;20.33;63.44;95552.25;5113412;28;20432;-65
2023/08/09 04:17:11;;;;;;;0.60;0.30;;;;;;;20.47;63.98;95558.19;5112765;28;20508;-66
2023/08/09 04:19:40;;;;;;;0.40;0.30;;;;;;;20.46;62.47;95545.84;5113800;28;20435;-65
2023/08/09 04:22:08;;;;;;;0.40;0.30;;;;;;;20.16;63.47;95563.06;5113556;28;20495;-65
2023/08/09 04:24:37;;;;;;;0.80;0.80;;;;;;;20.18;62.97;95561.63;5112955;28;20459;-65
2023/08/09 04:27:06;;;;;;;3.13;0.40;;;;;;;19.77;66.08;95561.47;5099328;28;20494;-66
2023/08/09 04:29:35;;;;;;;0.60;0.50;;;;;;;19.09;66.16;95565.03;5113342;28;20443;-65
2023/08/09 04:32:05;;;;;;;0.50;0.40;;;;;;;19.31;65.84;95550.59;5113426;28;20427;-64
2023/08/09 04:34:33;;;;;;;0.83;0.47;;;;;;;19.76;66.69;95572.56;5113153;28;20475;-65
2023/08/09 04:37:02;;;;;;;0.70;0.50;;;;;;;19.83;65.74;95572.84;5113185;28;20463;-66
2023/08/09 04:39:31;;;;;;;0.50;0.30;;;;;;;19.85;65.96;95571.41;5112896;28;20470;-50
2023/08/09 04:41:59;;;;;;;0.50;0.50;;;;;;;19.97;65.22;95560.75;5112831;28;20463;-65
2023/08/09 04:44:28;;;;;;;0.50;0.30;;;;;;;20.21;65.62;95576.34;5113143;28;20496;-65
2023/08/09 04:46:56;;;;;;;0.50;0.43;;;;;;;20.35;64.96;95576.94;5113038;28;20870;-61
2023/08/09 04:49:27;;;;;;;0.50;0.40;;;;;;;20.45;63.92;95576.56;5112631;28;20481;-63
2023/08/09 04:51:55;;;;;;;0.47;0.30;;;;;;;20.51;63.16;95577.19;5085125;28;20444;-62
2023/08/09 04:54:23;;;;;;;0.40;0.30;;;;;;;20.54;63.55;95580.00;5112973;28;20494;-61
2023/08/09 04:56:52;;;;;;;1.90;0.53;;;;;;;20.68;62.15;95577.06;5112323;28;20973;-61
2023/08/09 04:59:20;;;;;;;2.00;0.40;;;;;;;20.63;62.92;95577.25;5112610;28;20447;-61
2023/08/09 05:01:48;;;;;;;0.50;0.30;;;;;;;20.58;62.93;95572.84;5112180;28;20459;-61
2023/08/09 05:04:17;;;;;;;0.50;0.40;;;;;;;19.97;62.55;95560.75;5111818;28;20964;-61
2023/08/09 05:06:46;;;;;;;0.40;0.30;;;;;;;20.22;63.53;95569.84;5112770;28;20447;-61
2023/08/09 05:09:15;;;;;;;0.40;0.30;;;;;;;20.40;63.26;95565.19;5112414;28;20806;-61
2023/08/09 05:11:43;;;;;;;0.50;0.30;;;;;;;20.66;62.52;95576.63;5112633;28;20436;-60
2023/08/09 05:14:11;;;;;;;0.40;0.20;;;;;;;20.92;61.29;95578.00;5109155;28;20478;-61
2023/08/09 05:16:40;;;;;;;0.40;0.30;;;;;;;20.73;62.96;95574.97;5103295;28;20444;-60
2023/08/09 05:19:08;;;;;;;0.40;0.20;;;;;;;20.95;61.27;95579.25;5112179;28;20869;-59
2023/08/09 05:21:37;;;;;;;1.50;0.37;;;;;;;21.16;62.03;95565.81;5112375;28;20435;-60
2023/08/09 05:24:07;;;;;;;0.50;0.30;;;;;;;20.92;62.04;95574.56;5112111;28;20487;-59
2023/08/09 05:26:35;;;;;;;0.40;0.30;;;;;;;21.18;61.18;95571.66;5112242;28;20462;-58
2023/08/09 05:29:04;;;;;;;0.50;0.30;;;;;;;21.31;61.23;95574.09;5111324;28;20463;-58
2023/08/09 05:31:33;;;;;;;0.40;0.30;;;;;;;20.93;60.68;95581.50;5112252;28;20975;-58
2023/08/09 05:34:01;;;;;;;0.40;0.20;;;;;;;20.66;61.46;95568.53;5111875;28;20447;-58
2023/08/09 05:36:30;;;;;;;0.40;0.30;;;;;;;21.05;61.89;95578.88;5111930;28;20435;-57
2023/08/09 05:38:58;;;;;;;0.50;0.30;;;;;;;21.40;59.89;95579.44;5086060;28;20518;-57
2023/08/09 05:41:28;;;;;;;0.40;0.30;;;;;;;21.60;60.18;95573.22;5111475;28;20496;-57
2023/08/09 05:43:56;;;;;;;3.33;0.60;;;;;;;21.46;58.55;95519.53;5112044;28;20902;-57
2023/08/09 05:46:24;;;;;;;0.50;0.30;;;;;;;21.81;58.05;95573.13;5111758;28;20969;-55
2023/08/09 05:48:53;;;;;;;0.40;0.20;;;;;;;21.74;59.32;95564.78;5111550;28;20478;-53
2023/08/09 05:51:22;;;;;;;0.40;0.30;;;;;;;21.94;59.42;95566.66;5111947;28;20516;-54
2023/08/09 05:53:50;;;;;;;0.57;0.33;;;;;;;21.38;59.79;95568.16;5111909;28;20961;-53
2023/08/09 05:56:19;;;;;;;0.60;0.60;;;;;;;21.03;59.10;95574.94;5111653;28;20496;-52
2023/08/09 05:58:49;;;;;;;0.63;0.63;;;;;;;20.91;60.23;95575.66;5111030;28;20440;-53
2023/08/09 06:01:17;;;;;;;0.50;0.40;;;;;;;21.19;59.31;95565.16;5111527;28;20438;-53
2023/08/09 06:03:45;;;;;;;0.50;0.30;;;;;;;21.35;59.62;95568.84;5111931;28;20475;-52
2023/08/09 06:06:14;;;;;;;0.47;0.30;;;;;;;21.29;58.90;95578.25;5111858;28;20821;-53
2023/08/09 06:08:42;;;;;;;1.37;0.40;;;;;;;21.39;58.36;95575.94;5111978;28;20496;-52
2023/08/09 06:11:11;;;;;;;0.50;0.40;;;;;;;22.06;57.58;95570.19;5111370;28;20440;-52
2023/08/09 06:13:39;;;;;;;0.50;0.37;;;;;;;22.43;57.26;95564.81;5112395;28;20447;-51
2023/08/09 06:16:09;;;;;;;5.50;0.83;;;;;;;22.90;55.19;95563.19;5115942;28;20428;-51
2023/08/09 06:18:37;;;;;;;0.40;0.30;;;;;;;22.99;54.92;95558.47;5115532;28;20450;-51
2023/08/09 06:21:06;;;;;;;0.50;0.40;;;;;;;23.29;54.88;95557.03;5116112;28;20432;-52
2023/08/09 06:23:34;;;;;;;0.90;0.50;;;;;;;22.91;54.10;95567.50;5115995;27;20524;-52
2023/08/09 06:26:03;;;;;;;0.40;0.30;;;;;;;23.17;55.18;95559.75;5115801;28;20439;-51
2023/08/09 06:28:31;;;;;;;0.87;0.87;;;;;;;22.70;54.75;95567.63;5115297;28;20436;-51
2023/08/09 06:30:59;;;;;;;6.53;1.77;;;;;;;22.56;54.86;95555.59;5116146;28;20517;-51
2023/08/09 06:33:30;;;;;;;0.50;0.40;;;;;;;22.90;54.49;95565.91;5115133;28;20832;-51
2023/08/09 06:35:58;;;;;;;1.90;0.40;;;;;;;23.46;54.13;95561.38;5115351;28;20432;-51
2023/08/09 06:38:28;;;;;;;0.50;0.30;;;;;;;24.09;52.90;95559.59;5115212;28;20816;-51
2023/08/09 06:40:56;;;;;;;0.40;0.30;;;;;;;24.17;52.57;95555.13;5115378;28;20992;-51
2023/08/09 06:43:24;;;;;;;0.50;0.30;;;;;;;24.25;51.99;95548.75;5115390;28;20503;-52
2023/08/09 06:45:53;;;;;;;0.40;0.27;;;;;;;24.17;52.24;95552.44;5115675;28;20492;-52
2023/08/09 06:48:21;;;;;;;0.97;0.70;;;;;;;23.93;51.68;95543.28;5115139;28;20459;-52
2023/08/09 06:50:51;;;;;;;0.60;0.40;;;;;;;24.16;51.39;95557.06;5114904;28;20526;-52
2023/08/09 06:53:19;;;;;;;0.40;0.30;;;;;;;23.90;52.05;95549.44;5115074;28;20439;-52
2023/08/09 06:55:48;;;;;;;0.50;0.37;;;;;;;24.27;51.19;95544.56;5114723;28;20474;-53
2023/08/09 06:58:16;;;;;;;0.60;0.40;;;;;;;24.09;51.54;95527.09;5101521;28;20432;-52
2023/08/09 07:00:46;;;;;;;0.80;0.80;;;;;;;23.81;52.26;95548.78;5115099;28;20949;-53
2023/08/09 07:03:15;;;;;;;0.70;0.60;;;;;;;24.22;51.05;95542.13;5115166;28;20466;-53
2023/08/09 07:05:43;;;;;;;0.60;0.40;;;;;;;24.26;50.01;95406.78;5114803;28;20436;-52
2023/08/09 07:08:13;;;;;;;1.07;0.50;;;;;;;25.89;48.46;95533.69;5105804;28;20453;-53
2023/08/09 07:10:42;;;;;;;0.60;0.47;;;;;;;25.60;48.25;95518.81;5109810;28;20439;-53
2023/08/09 07:13:10;;;;;;;0.70;0.50;;;;;;;25.71;47.72;95532.59;5113986;28;20475;-53
2023/08/09 07:15:38;;;;;;;0.40;0.30;;;;;;;26.36;47.17;95527.94;5114522;27;20440;-53
2023/08/09 07:18:07;;;;;;;0.40;0.30;;;;;;;26.76;46.64;95520.03;5114876;28;20447;-53
2023/08/09 07:20:36;;;;;;;0.53;0.40;;;;;;;26.08;47.77;95516.56;5114593;27;20472;-53
2023/08/09 07:23:04;;;;;;;1.00;0.97;;;;;;;26.18;46.94;95513.28;5114519;28;20501;-53
2023/08/09 07:25:34;;;;;;;0.50;0.37;;;;;;;25.78;46.87;95509.06;5113342;27;20497;-53
2023/08/09 07:28:03;;;;;;;0.47;0.40;;;;;;;26.22;46.86;95512.16;5114672;28;20454;-52
2023/08/09 07:30:31;;;;;;;0.50;0.30;;;;;;;26.89;46.84;95509.72;5114347;28;20891;-52
2023/08/09 07:32:59;;;;;;;0.50;0.30;;;;;;;27.34;44.96;95492.38;5114811;28;20778;-52
2023/08/09 07:35:28;;;;;;;0.60;0.60;;;;;;;27.78;44.74;95501.44;5114042;27;20440;-53
2023/08/09 07:37:57;;;;;;;0.77;0.63;;;;;;;27.56;44.99;95492.25;5114374;28;21181;-53
2023/08/09 07:40:25;;;;;;;0.40;0.30;;;;;;;27.91;45.54;95491.03;5113797;28;20940;-54
2023/08/09 07:42:55;;;;;;;0.70;0.43;;;;;;;27.41;44.83;95490.53;5114254;28;20442;-53
2023/08/09 07:45:24;;;;;;;0.60;0.60;;;;;;;27.26;43.09;95491.50;5100855;28;20471;-53
2023/08/09 07:47:52;;;;;;;0.50;0.47;;;;;;;27.80;41.76;95485.50;5113678;28;21009;-53
2023/08/09 07:50:20;;;;;;;0.73;0.60;;;;;;;28.69;40.82;95474.16;5113482;28;20972;-54
2023/08/09 07:52:49;;;;;;;0.40;0.30;;;;;;;29.67;39.60;95473.03;5113947;28;20439;-54
2023/08/09 07:55:18;;;;;;;0.50;0.40;;;;;;;28.60;40.98;95478.38;5113750;28;20475;-54
2023/08/09 07:57:46;;;;;;;0.73;0.60;;;;;;;28.60;40.47;95473.69;5113169;28;20431;-55
2023/08/09 08:00:17;;;;;;;0.40;0.30;;;;;;;29.38;41.28;95472.16;5113843;28;20459;-55
2023/08/09 08:02:47;;;;;;;0.50;0.30;;;;;;;29.00;40.59;95469.25;5113607;28;20949;-55
2023/08/09 08:05:15;;;;;;;0.50;0.50;;;;;;;29.08;40.48;95466.19;5114000;28;20830;-56
2023/08/09 08:07:44;;;;;;;0.40;0.30;;;;;;;29.52;40.49;95457.78;5109337;28;20436;-55
2023/08/09 08:10:15;;;;;;;0.40;0.30;;;;;;;29.72;38.71;95382.50;5104762;28;20436;-55
2023/08/09 08:12:45;;;;;;;0.40;0.40;;;;;;;28.93;40.14;95448.97;5113526;28;20436;-56
2023/08/09 08:15:13;;;;;;;0.83;0.83;;;;;;;28.71;39.47;95444.59;5113469;28;20439;-56
2023/08/09 08:17:46;;;;;;;0.60;0.40;;;;;;;28.67;39.14;95442.97;5112811;28;20435;-56
2023/08/09 08:20:17;;;;;;;0.63;0.53;;;;;;;29.23;39.64;95446.00;5112832;28;21011;-55
2023/08/09 08:22:45;;;;;;;0.30;0.30;;;;;;;29.95;38.41;95434.06;5100964;28;20478;-55
2023/08/09 08:25:15;;;;;;;0.77;0.40;;;;;;;30.07;38.57;95433.66;5113336;28;20467;-55
2023/08/09 08:27:45;;;;;;;0.50;0.33;;;;;;;30.32;36.80;95431.69;5113405;28;20481;-55
2023/08/09 08:30:16;;;;;;;0.40;0.40;;;;;;;31.72;35.84;95423.38;5113277;28;20442;-55
2023/08/09 08:32:47;;;;;;;0.40;0.30;;;;;;;31.48;36.17;95375.78;5113081;28;20445;-56
2023/08/09 08:35:20;;;;;;;0.60;0.30;;;;;;;32.03;35.10;95414.94;5113398;28;20802;-56
2023/08/09 08:37:50;;;;;;;0.40;0.30;;;;;;;31.82;35.96;95403.34;5112973;28;20450;-57
2023/08/09 08:40:19;;;;;;;0.40;0.40;;;;;;;31.29;36.29;95417.34;5112440;28;20929;-57
2023/08/09 08:42:48;;;;;;;0.40;0.30;;;;;;;31.19;35.47;95408.03;5113205;28;20438;-56
2023/08/09 08:45:19;;;;;;;0.40;0.30;;;;;;;31.32;36.18;95406.38;5112608;28;21039;-56
2023/08/09 08:47:49;;;;;;;0.67;0.50;;;;;;;31.84;37.12;95404.50;5111935;28;20439;-56
2023/08/09 08:50:18;;;;;;;0.60;0.60;;;;;;;32.37;34.79;95406.81;5112924;28;20959;-55
2023/08/09 08:52:48;;;;;;;0.57;0.30;;;;;;;31.55;34.99;95397.63;5112645;28;20924;-55
2023/08/09 08:55:17;;;;;;;0.70;0.50;;;;;;;31.67;34.48;95407.38;5112704;28;20526;-54
2023/08/09 08:57:47;;;;;;;0.40;0.33;;;;;;;32.05;34.61;95402.78;5112766;28;20468;-54
2023/08/09 09:00:17;;;;;;;0.97;0.30;;;;;;;31.45;35.43;95381.28;5112578;28;20439;-54
2023/08/09 09:02:50;;;;;;;0.40;0.30;;;;;;;32.61;35.25;95385.81;5112665;28;20534;-55
2023/08/09 09:05:19;;;;;;;0.30;0.30;;;;;;;31.41;34.71;95379.31;5112638;28;20478;-54
2023/08/09 09:07:50;;;;;;;0.40;0.30;;;;;;;30.76;36.06;95368.31;5111891;28;20521;-54
2023/08/09 09:10:21;;;;;;;0.53;0.50;;;;;;;31.73;34.24;95367.38;5112272;28;20431;-54
2023/08/09 09:12:51;;;;;;;0.60;0.40;;;;;;;32.12;34.32;95364.34;5112411;28;20445;-54
2023/08/09 09:15:19;;;;;;;0.40;0.30;;;;;;;32.31;35.74;95356.28;5112689;28;20446;-54
2023/08/09 09:17:51;;;;;;;0.70;0.40;;;;;;;31.83;34.45;95347.31;5086443;28;20438;-54
2023/08/09 09:20:23;;;;;;;0.57;0.33;;;;;;;32.03;34.67;95307.22;5112051;28;20492;-55
2023/08/09 09:22:52;;;;;;;0.40;0.37;;;;;;;32.36;33.18;95350.34;5112139;28;20935;-54
2023/08/09 09:25:23;;;;;;;0.40;0.40;;;;;;;32.91;32.13;95344.66;5111740;28;20557;-54
2023/08/09 09:27:54;;;;;;;0.93;0.93;;;;;;;32.74;32.53;95333.91;5112699;28;20481;-51
2023/08/09 09:30:25;;;;;;;0.70;0.70;;;;;;;33.01;32.07;95341.00;5111803;28;20811;-50
2023/08/09 09:32:59;;;;;;;0.40;0.40;;;;;;;32.31;31.88;95350.06;5112378;28;20431;-50
2023/08/09 09:35:29;;;;;;;0.90;0.90;;;;;;;32.56;33.80;95340.38;5112147;28;20555;-50
2023/08/09 09:37:59;;;;;;;0.40;0.40;;;;;;;33.60;30.95;95333.13;5112042;28;21006;-51
2023/08/09 09:40:31;;;;;;;1.10;1.10;;;;;;;33.02;30.90;95330.78;5112023;28;20875;-49
2023/08/09 09:43:05;;;;;;;0.73;0.40;;;;;;;34.34;32.49;95323.59;5112085;28;20446;-48
2023/08/09 09:45:36;;;;;;;0.50;0.33;;;;;;;32.45;30.42;95331.47;5111467;28;20481;-49
2023/08/09 09:48:17;;;;;;;0.47;0.37;;;;;;;32.42;30.47;95329.53;5111259;28;20535;-49
2023/08/09 09:50:46;;;;;;;0.40;0.30;;;;;;;32.86;31.61;95317.66;5111073;28;20434;-48
2023/08/09 09:53:16;;;;;;;0.40;0.30;;;;;;;33.72;30.44;95316.06;5111962;28;20441;-53
2023/08/09 09:55:44;;;;;;;3.97;0.40;;;;;;;33.93;30.25;95311.38;5111768;28;20434;-58
2023/08/09 09:58:13;;;;;;;0.70;0.40;;;;;;;33.25;30.11;95311.63;5111876;28;20431;-58
2023/08/09 10:00:48;;;;;;;0.30;0.30;;;;;;;34.05;32.92;95295.06;5111453;28;21006;-57
2023/08/09 10:03:24;;;;;;;0.40;0.30;;;;;;;33.77;31.58;95298.28;5086917;28;20813;-58
2023/08/09 10:05:59;;;;;;;0.50;0.43;;;;;;;33.51;31.04;95225.66;5111324;28;20474;-57
2023/08/09 10:08:30;;;;;;;0.40;0.30;;;;;;;33.84;28.58;95295.41;5111823;28;20462;-53
2023/08/09 10:11:00;;;;;;;0.40;0.40;;;;;;;33.34;28.14;95289.94;5111347;28;20496;-53
2023/08/09 10:13:30;;;;;;;0.50;0.40;;;;;;;34.50;28.55;95273.38;5111430;28;20611;-53
2023/08/09 10:16:02;;;;;;;0.67;0.50;;;;;;;34.64;26.74;95259.31;5111736;28;20438;-53
2023/08/09 10:18:36;;;;;;;1.10;0.40;;;;;;;34.60;28.65;95266.91;5111285;28;20474;-53
2023/08/09 10:21:06;;;;;;;8.03;0.40;;;;;;;34.79;27.77;95268.06;5111128;28;20875;-53
2023/08/09 10:23:35;;;;;;;0.40;0.40;;;;;;;35.30;25.95;95261.03;5111135;28;20435;-53
2023/08/09 10:26:04;;;;;;;0.80;0.40;;;;;;;36.08;25.97;95257.91;5111561;28;20474;-52
2023/08/09 10:28:48;;;;;;;0.47;0.40;;;;;;;35.70;25.15;95243.91;5111246;28;20443;-53
2023/08/09 10:31:46;;;;;;;0.37;0.30;;;;;;;36.00;25.71;95255.78;5111321;28;20714;-53
2023/08/09 10:34:17;;;;;;;0.40;0.30;;;;;;;35.03;26.23;95248.25;5087452;28;20189;-53
2023/08/09 10:36:50;;;;;;;0.40;0.30;;;;;;;35.59;26.22;95245.38;5111357;28;20196;-53
2023/08/09 10:39:19;;;;;;;0.43;0.33;;;;;;;33.62;26.83;95184.28;5111599;28;20189;-52
2023/08/09 10:41:55;;;;;;;1.47;1.47;;;;;;;35.20;27.79;95232.53;5110956;28;20205;-52
2023/08/09 10:44:34;;;;;;;0.30;0.30;;;;;;;35.36;27.54;95207.72;5111180;28;20198;-51
2023/08/09 10:47:04;;;;;;;0.40;0.30;;;;;;;34.47;27.43;95228.19;5111422;28;20259;-52
2023/08/09 10:49:45;;;;;;;0.90;0.50;;;;;;;34.62;26.47;95223.19;5111293;28;20887;-52
2023/08/09 10:52:14;;;;;;;1.73;0.50;;;;;;;34.41;26.34;95212.59;5111406;28;20325;-52
2023/08/09 10:54:50;;;;;;;0.50;0.37;;;;;;;35.53;26.38;95220.31;5111005;28;20184;-52
2023/08/09 10:57:18;;;;;;;0.30;0.30;;;;;;;35.75;25.29;95222.53;5111822;28;20446;-53
2023/08/09 10:59:56;;;;;;;0.40;0.33;;;;;;;36.33;24.88;95216.59;5111300;28;20197;-53
2023/08/09 11:02:25;;;;;;;1.80;0.30;;;;;;;36.48;24.49;95213.47;5114255;28;20196;-52
2023/08/09 11:04:55;;;;;;;0.40;0.30;;;;;;;36.16;25.92;95211.56;5115415;28;20189;-52
2023/08/09 11:07:24;;;;;;;0.40;0.40;;;;;;;36.30;25.50;95211.19;5114652;28;20213;-52
2023/08/09 11:09:52;;;;;;;0.30;0.20;;;;;;;36.75;24.60;95203.56;5115165;28;20200;-52
2023/08/09 11:12:24;;;;;;;0.40;0.40;;;;;;;35.77;25.02;95201.59;5114680;28;20188;-52
2023/08/09 11:14:55;;;;;;;0.40;0.30;;;;;;;35.94;24.91;95191.28;5114728;28;20697;-52
2023/08/09 11:17:23;;;;;;;0.40;0.40;;;;;;;35.23;24.24;95200.56;5114327;28;20572;-52
2023/08/09 11:19:52;;;;;;;0.40;0.30;;;;;;;35.71;24.47;95197.78;5114896;28;20547;-52
2023/08/09 11:22:22;;;;;;;0.37;0.30;;;;;;;37.16;26.21;95177.81;5114873;28;20192;-52
2023/08/09 11:24:50;;;;;;;0.30;0.30;;;;;;;37.08;24.23;95179.25;5114134;28;20193;-51
2023/08/09 11:27:18;;;;;;;0.40;0.40;;;;;;;35.93;24.21;95181.44;5114658;27;20213;-52
2023/08/09 11:29:47;;;;;;;0.50;0.50;;;;;;;35.80;25.51;95189.66;5114873;28;20196;-52
2023/08/09 11:32:15;;;;;;;0.30;0.20;;;;;;;36.72;23.93;95176.03;5114010;28;20258;-52
2023/08/09 11:34:44;;;;;;;0.30;0.20;;;;;;;36.94;23.78;95182.47;5114492;28;20296;-52
2023/08/09 11:37:12;;;;;;;0.40;0.30;;;;;;;34.76;25.24;95180.81;5114048;28;20204;-53
2023/08/09 11:39:42;;;;;;;0.60;0.30;;;;;;;34.76;25.54;95156.03;5113912;28;20581;-53
2023/08/09 11:42:10;;;;;;;0.60;0.60;;;;;;;35.61;24.90;95174.03;5114210;28;20651;-53
2023/08/09 11:44:39;;;;;;;0.60;0.37;;;;;;;35.38;25.60;95174.22;5114068;27;20193;-53